createdAt,value
2018-05-03T00:00:21.522Z,43.50
2018-05-03T00:01:26.200Z,43.50
2018-05-03T00:02:30.809Z,43.60
2018-05-03T00:03:35.669Z,43.50
2018-05-03T00:04:40.748Z,43.50
2018-05-03T00:05:45.752Z,43.50
2018-05-03T00:06:50.499Z,43.50
2018-05-03T00:07:55.482Z,43.50
2018-05-03T00:09:00.483Z,43.60
2018-05-03T00:10:05.088Z,43.50
2018-05-03T00:11:10.118Z,43.50
2018-05-03T00:12:14.796Z,43.50
2018-05-03T00:13:19.587Z,43.50
2018-05-03T00:14:24.258Z,43.50
2018-05-03T00:15:29.247Z,43.70
2018-05-03T00:16:34.047Z,43.50
2018-05-03T00:17:38.919Z,43.50
2018-05-03T00:18:43.599Z,43.50
2018-05-03T00:19:48.422Z,43.50
2018-05-03T00:20:53.251Z,43.50
2018-05-03T00:21:58.125Z,43.50
2018-05-03T00:23:03.005Z,43.50
2018-05-03T00:24:08.052Z,43.70
2018-05-03T00:25:12.897Z,43.50
2018-05-03T00:26:17.583Z,43.50
2018-05-03T00:27:22.230Z,43.60
2018-05-03T00:28:26.957Z,43.50
2018-05-03T00:29:31.989Z,43.50
2018-05-03T00:30:36.618Z,43.50
2018-05-03T00:31:41.476Z,43.50
2018-05-03T00:32:46.125Z,43.60
2018-05-03T00:33:50.996Z,43.50
2018-05-03T00:34:55.974Z,43.50
2018-05-03T00:36:00.901Z,43.50
2018-05-03T00:37:05.756Z,43.50
2018-05-03T00:38:10.388Z,43.50
2018-05-03T00:39:15.182Z,43.50
2018-05-03T00:40:20.055Z,43.50
2018-05-03T00:41:24.908Z,43.50
2018-05-03T00:42:29.708Z,43.50
2018-05-03T00:43:34.520Z,43.50
2018-05-03T00:44:39.312Z,43.50
2018-05-03T00:45:44.014Z,43.50
2018-05-03T00:46:48.891Z,43.50
2018-05-03T00:47:53.671Z,43.50
2018-05-03T00:48:58.552Z,43.50
2018-05-03T00:50:03.408Z,43.50
2018-05-03T00:51:08.223Z,43.50
2018-05-03T00:52:13.206Z,43.50
2018-05-03T00:53:18.250Z,43.50
2018-05-03T00:54:23.228Z,43.50
2018-05-03T00:55:28.102Z,43.50
2018-05-03T00:56:32.739Z,43.50
2018-05-03T00:57:37.753Z,43.50
2018-05-03T00:58:42.655Z,43.50
2018-05-03T00:59:47.530Z,43.50
2018-05-03T01:00:52.444Z,43.50
2018-05-03T01:01:57.345Z,43.50
2018-05-03T01:03:02.074Z,43.50
2018-05-03T01:04:06.800Z,43.50
2018-05-03T01:05:11.655Z,43.50
2018-05-03T01:06:16.486Z,43.50
2018-05-03T01:07:21.311Z,43.50
2018-05-03T01:08:26.338Z,43.50
2018-05-03T01:09:31.401Z,43.40
2018-05-03T01:10:36.193Z,43.50
2018-05-03T01:11:41.206Z,43.50
2018-05-03T01:12:46.297Z,43.40
2018-05-03T01:13:51.178Z,43.50
2018-05-03T01:14:55.995Z,43.50
2018-05-03T01:16:00.686Z,43.60
2018-05-03T01:17:05.594Z,43.40
2018-05-03T01:18:10.208Z,43.50
2018-05-03T01:19:14.804Z,43.50
2018-05-03T01:20:19.829Z,43.50
2018-05-03T01:21:24.859Z,44.10
2018-05-03T01:22:29.687Z,43.50
2018-05-03T01:23:34.527Z,43.60
2018-05-03T01:24:39.213Z,43.60
2018-05-03T01:25:44.112Z,43.60
2018-05-03T01:26:48.892Z,43.60
2018-05-03T01:27:53.575Z,43.60
2018-05-03T01:28:58.252Z,43.60
2018-05-03T01:30:02.895Z,43.60
2018-05-03T01:31:07.720Z,43.60
2018-05-03T01:32:12.678Z,43.60
2018-05-03T01:33:17.472Z,43.60
2018-05-03T01:34:22.232Z,43.60
2018-05-03T01:35:27.251Z,43.60
2018-05-03T01:36:31.904Z,43.60
2018-05-03T01:37:36.655Z,43.60
2018-05-03T01:38:41.441Z,43.60
2018-05-03T01:39:46.194Z,43.50
2018-05-03T01:40:50.969Z,43.60
2018-05-03T01:41:55.668Z,43.60
2018-05-03T01:43:00.596Z,43.70
2018-05-03T01:44:05.364Z,43.60
2018-05-03T01:45:10.291Z,43.60
2018-05-03T01:46:15.148Z,43.60
2018-05-03T01:47:20.112Z,43.60
2018-05-03T01:48:25.092Z,43.60
2018-05-03T01:49:29.838Z,43.60
2018-05-03T01:50:34.589Z,43.60
2018-05-03T01:51:39.394Z,43.60
2018-05-03T01:52:44.355Z,43.60
2018-05-03T01:53:49.304Z,43.60
2018-05-03T01:54:54.040Z,43.60
2018-05-03T01:55:58.979Z,43.60
2018-05-03T01:57:04.011Z,43.60
2018-05-03T01:58:08.916Z,43.60
2018-05-03T01:59:13.731Z,43.60
2018-05-03T02:00:18.768Z,43.60
2018-05-03T02:01:23.777Z,43.60
2018-05-03T02:02:28.578Z,43.60
2018-05-03T02:03:33.193Z,43.60
2018-05-03T02:04:38.100Z,44.20
2018-05-03T02:05:42.984Z,43.60
2018-05-03T02:06:47.904Z,43.60
2018-05-03T02:07:52.788Z,43.60
2018-05-03T02:08:57.561Z,43.60
2018-05-03T02:10:02.297Z,43.60
2018-05-03T02:11:07.351Z,43.60
2018-05-03T02:12:12.160Z,43.60
2018-05-03T02:13:16.848Z,43.60
2018-05-03T02:14:21.634Z,43.60
2018-05-03T02:15:26.775Z,43.50
2018-05-03T02:16:31.568Z,43.50
2018-05-03T02:17:36.525Z,43.50
2018-05-03T02:18:41.412Z,43.50
2018-05-03T02:19:46.237Z,43.60
2018-05-03T02:20:51.125Z,43.50
2018-05-03T02:21:56.130Z,43.50
2018-05-03T02:23:00.757Z,43.50
2018-05-03T02:24:05.605Z,43.50
2018-05-03T02:25:10.614Z,43.60
2018-05-03T02:26:15.469Z,43.60
2018-05-03T02:27:20.436Z,43.50
2018-05-03T02:28:25.451Z,43.90
2018-05-03T02:29:30.125Z,43.50
2018-05-03T02:30:35.056Z,43.50
2018-05-03T02:31:39.721Z,43.50
2018-05-03T02:32:44.695Z,43.50
2018-05-03T02:33:49.659Z,43.50
2018-05-03T02:34:54.529Z,43.50
2018-05-03T02:35:59.158Z,43.50
2018-05-03T02:37:03.812Z,43.50
2018-05-03T02:38:08.434Z,43.60
2018-05-03T02:39:13.274Z,43.50
2018-05-03T02:40:18.086Z,43.60
2018-05-03T02:41:22.949Z,43.50
2018-05-03T02:42:27.730Z,43.60
2018-05-03T02:43:32.568Z,43.60
2018-05-03T02:44:37.378Z,43.60
2018-05-03T02:45:42.235Z,43.50
2018-05-03T02:46:47.224Z,43.50
2018-05-03T02:47:52.155Z,43.50
2018-05-03T02:48:56.989Z,43.50
2018-05-03T02:50:01.953Z,43.50
2018-05-03T02:51:06.892Z,43.60
2018-05-03T02:52:11.759Z,43.50
2018-05-03T02:53:16.542Z,43.50
2018-05-03T02:54:21.502Z,43.60
2018-05-03T02:55:26.365Z,43.50
2018-05-03T02:56:31.103Z,43.60
2018-05-03T02:57:36.025Z,43.60
2018-05-03T02:58:40.968Z,43.50
2018-05-03T02:59:45.685Z,43.60
2018-05-03T03:00:50.535Z,43.60
2018-05-03T03:01:55.552Z,43.60
2018-05-03T03:03:00.372Z,43.60
2018-05-03T03:04:05.283Z,43.60
2018-05-03T03:05:09.942Z,43.60
2018-05-03T03:06:14.880Z,43.50
2018-05-03T03:07:19.507Z,43.60
2018-05-03T03:08:24.285Z,43.60
2018-05-03T03:09:29.283Z,43.60
2018-05-03T03:10:34.053Z,43.50
2018-05-03T03:11:39.010Z,43.60
2018-05-03T03:12:43.607Z,43.50
2018-05-03T03:13:48.204Z,43.60
2018-05-03T03:14:53.141Z,43.60
2018-05-03T03:15:57.898Z,43.50
2018-05-03T03:17:02.886Z,43.50
2018-05-03T03:18:07.677Z,43.50
2018-05-03T03:19:12.533Z,43.50
2018-05-03T03:20:17.272Z,43.50
2018-05-03T03:21:22.073Z,43.50
2018-05-03T03:22:26.874Z,43.50
2018-05-03T03:23:31.929Z,43.50
2018-05-03T03:24:36.835Z,43.50
2018-05-03T03:25:41.602Z,43.50
2018-05-03T03:26:46.414Z,43.50
2018-05-03T03:27:51.395Z,43.50
2018-05-03T03:28:56.220Z,43.50
2018-05-03T03:30:01.636Z,43.50
2018-05-03T03:31:06.723Z,43.50
2018-05-03T03:32:11.522Z,43.50
2018-05-03T03:33:16.494Z,43.50
2018-05-03T03:34:21.388Z,43.50
2018-05-03T03:35:26.306Z,43.50
2018-05-03T03:36:31.156Z,43.50
2018-05-03T03:37:36.079Z,43.40
2018-05-03T03:38:41.032Z,43.40
2018-05-03T03:39:45.680Z,43.40
2018-05-03T03:40:50.593Z,43.40
2018-05-03T03:41:55.591Z,43.50
2018-05-03T03:43:00.555Z,43.40
2018-05-03T03:44:05.244Z,43.40
2018-05-03T03:45:10.192Z,43.40
2018-05-03T03:46:14.989Z,43.50
2018-05-03T03:47:19.721Z,43.40
2018-05-03T03:48:24.436Z,43.40
2018-05-03T03:49:29.089Z,43.40
2018-05-03T03:50:33.802Z,43.40
2018-05-03T03:51:38.796Z,43.50
2018-05-03T03:52:43.608Z,43.40
2018-05-03T03:53:48.197Z,43.50
2018-05-03T03:54:53.016Z,43.40
2018-05-03T03:55:57.835Z,43.40
2018-05-03T03:57:02.667Z,43.40
2018-05-03T03:58:07.383Z,43.40
2018-05-03T03:59:12.353Z,43.40
2018-05-03T04:00:17.235Z,43.40
2018-05-03T04:01:22.057Z,43.40
2018-05-03T04:02:27.104Z,43.40
2018-05-03T04:03:31.922Z,43.40
2018-05-03T04:04:36.790Z,43.40
2018-05-03T04:05:41.681Z,43.40
2018-05-03T04:06:46.380Z,43.40
2018-05-03T04:07:51.462Z,43.40
2018-05-03T04:08:56.351Z,43.40
2018-05-03T04:10:01.169Z,43.40
2018-05-03T04:11:05.913Z,43.40
2018-05-03T04:12:10.620Z,43.40
2018-05-03T04:13:15.666Z,43.50
2018-05-03T04:14:20.552Z,43.40
2018-05-03T04:15:25.220Z,43.40
2018-05-03T04:16:30.074Z,43.50
2018-05-03T04:17:34.913Z,43.40
2018-05-03T04:18:39.802Z,43.30
2018-05-03T04:19:44.567Z,43.50
2018-05-03T04:20:49.448Z,43.40
2018-05-03T04:21:54.331Z,43.50
2018-05-03T04:22:59.356Z,43.40
2018-05-03T04:24:04.080Z,43.30
2018-05-03T04:25:09.038Z,43.40
2018-05-03T04:26:13.857Z,43.40
2018-05-03T04:27:18.779Z,43.40
2018-05-03T04:28:23.663Z,43.40
2018-05-03T04:29:28.573Z,43.40
2018-05-03T04:30:33.432Z,43.30
2018-05-03T04:31:38.398Z,43.50
2018-05-03T04:32:43.299Z,43.40
2018-05-03T04:33:48.219Z,43.40
2018-05-03T04:34:52.999Z,43.40
2018-05-03T04:35:57.770Z,43.40
2018-05-03T04:37:02.781Z,43.30
2018-05-03T04:38:07.774Z,43.30
2018-05-03T04:39:12.532Z,43.30
2018-05-03T04:40:17.428Z,42.90
2018-05-03T04:41:22.230Z,42.50
2018-05-03T04:42:27.432Z,42.20
2018-05-03T04:43:32.070Z,42.00
2018-05-03T04:44:36.892Z,41.80
2018-05-03T04:45:42.077Z,41.70
2018-05-03T04:46:46.956Z,41.60
2018-05-03T04:47:52.065Z,41.60
2018-05-03T04:48:56.975Z,41.60
2018-05-03T04:50:02.207Z,41.60
2018-05-03T04:51:06.933Z,41.70
2018-05-03T04:52:11.937Z,41.70
2018-05-03T04:53:16.731Z,41.80
2018-05-03T04:54:21.666Z,41.90
2018-05-03T04:55:26.506Z,41.90
2018-05-03T04:56:31.379Z,42.00
2018-05-03T04:57:36.259Z,41.90
2018-05-03T04:58:41.589Z,41.90
2018-05-03T04:59:46.465Z,41.90
2018-05-03T05:00:51.474Z,42.00
2018-05-03T05:01:56.143Z,42.20
2018-05-03T05:03:00.930Z,42.20
2018-05-03T05:04:05.681Z,42.20
2018-05-03T05:05:10.774Z,42.20
2018-05-03T05:06:15.801Z,42.10
2018-05-03T05:07:20.857Z,42.20
2018-05-03T05:08:25.758Z,42.30
2018-05-03T05:09:30.922Z,42.40
2018-05-03T05:10:39.433Z,42.40
2018-05-03T05:11:44.622Z,42.50
2018-05-03T05:12:49.327Z,42.60
2018-05-03T05:13:54.179Z,42.60
2018-05-03T05:14:59.140Z,42.60
2018-05-03T05:16:03.908Z,42.60
2018-05-03T05:17:08.775Z,42.70
2018-05-03T05:18:13.984Z,42.60
2018-05-03T05:19:18.830Z,42.70
2018-05-03T05:20:23.682Z,42.50
2018-05-03T05:21:28.724Z,42.60
2018-05-03T05:22:33.562Z,42.50
2018-05-03T05:23:38.493Z,43.20
2018-05-03T05:24:43.519Z,42.50
2018-05-03T05:25:48.460Z,42.50
2018-05-03T05:26:55.460Z,42.60
2018-05-03T05:28:00.417Z,42.50
2018-05-03T05:29:05.640Z,42.50
2018-05-03T05:30:10.820Z,42.50
2018-05-03T05:31:15.497Z,42.50
2018-05-03T05:32:20.440Z,42.70
2018-05-03T05:33:25.372Z,42.70
2018-05-03T05:34:30.269Z,42.70
2018-05-03T05:35:35.222Z,42.80
2018-05-03T05:36:40.124Z,42.90
2018-05-03T05:37:44.972Z,42.80
2018-05-03T05:38:49.692Z,42.90
2018-05-03T05:39:54.542Z,42.90
2018-05-03T05:40:59.556Z,42.90
2018-05-03T05:42:04.650Z,42.90
2018-05-03T05:43:09.576Z,42.90
2018-05-03T05:44:15.197Z,42.80
2018-05-03T05:45:19.891Z,42.80
2018-05-03T05:46:24.696Z,42.70
2018-05-03T05:47:29.609Z,42.60
2018-05-03T05:48:34.514Z,42.60
2018-05-03T05:49:39.280Z,42.60
2018-05-03T05:50:44.237Z,42.80
2018-05-03T05:51:49.230Z,42.90
2018-05-03T05:52:54.577Z,43.00
2018-05-03T05:53:59.310Z,43.00
2018-05-03T05:55:04.310Z,43.00
2018-05-03T05:56:09.216Z,43.10
2018-05-03T05:57:14.336Z,43.10
2018-05-03T05:58:19.208Z,43.20
2018-05-03T05:59:23.848Z,43.20
2018-05-03T06:00:28.522Z,43.20
2018-05-03T06:01:33.245Z,43.20
2018-05-03T06:02:38.118Z,43.20
2018-05-03T06:03:42.747Z,43.20
2018-05-03T06:04:47.824Z,43.30
2018-05-03T06:05:53.272Z,43.30
2018-05-03T06:06:58.318Z,43.20
2018-05-03T06:08:03.170Z,43.10
2018-05-03T06:09:08.242Z,43.80
2018-05-03T06:10:13.164Z,43.20
2018-05-03T06:11:17.724Z,43.10
2018-05-03T06:12:22.767Z,43.10
2018-05-03T06:13:27.674Z,43.10
2018-05-03T06:14:32.286Z,43.10
2018-05-03T06:15:37.010Z,43.20
2018-05-03T06:16:41.907Z,43.20
2018-05-03T06:17:46.531Z,43.30
2018-05-03T06:18:51.148Z,43.30
2018-05-03T06:19:56.104Z,43.30
2018-05-03T06:21:01.053Z,43.30
2018-05-03T06:22:05.938Z,43.30
2018-05-03T06:23:10.785Z,43.30
2018-05-03T06:24:15.513Z,43.30
2018-05-03T06:25:20.486Z,43.30
2018-05-03T06:26:25.088Z,43.30
2018-05-03T06:27:30.312Z,43.30
2018-05-03T06:28:35.030Z,43.30
2018-05-03T06:29:39.741Z,43.30
2018-05-03T06:30:44.354Z,43.30
2018-05-03T06:31:49.294Z,43.30
2018-05-03T06:32:53.934Z,43.30
2018-05-03T06:33:58.598Z,43.30
2018-05-03T06:35:03.616Z,43.30
2018-05-03T06:36:08.786Z,43.30
2018-05-03T06:37:14.418Z,43.30
2018-05-03T06:38:19.189Z,43.30
2018-05-03T06:39:23.939Z,43.30
2018-05-03T06:40:28.818Z,43.30
2018-05-03T06:41:33.503Z,43.30
2018-05-03T06:42:38.349Z,43.30
2018-05-03T06:43:43.351Z,43.20
2018-05-03T06:44:48.020Z,43.20
2018-05-03T06:45:53.220Z,43.20
2018-05-03T06:46:58.191Z,43.20
2018-05-03T06:48:03.044Z,43.10
2018-05-03T06:49:08.062Z,43.10
2018-05-03T06:50:12.881Z,43.00
2018-05-03T06:51:17.877Z,42.90
2018-05-03T06:52:22.927Z,42.80
2018-05-03T06:53:27.703Z,42.80
2018-05-03T06:54:32.644Z,42.80
2018-05-03T06:55:37.406Z,42.60
2018-05-03T06:56:42.317Z,42.30
2018-05-03T06:57:46.965Z,42.20
2018-05-03T06:58:51.941Z,42.10
2018-05-03T06:59:56.798Z,42.00
2018-05-03T07:01:01.703Z,41.80
2018-05-03T07:02:06.542Z,41.80
2018-05-03T07:03:11.262Z,41.70
2018-05-03T07:04:16.117Z,41.70
2018-05-03T07:05:20.884Z,41.70
2018-05-03T07:06:25.830Z,41.70
2018-05-03T07:07:30.649Z,41.60
2018-05-03T07:08:35.328Z,41.60
2018-05-03T07:09:40.178Z,41.60
2018-05-03T07:10:45.106Z,41.50
2018-05-03T07:11:49.940Z,41.50
2018-05-03T07:12:54.579Z,41.40
2018-05-03T07:13:59.471Z,41.30
2018-05-03T07:15:04.400Z,41.10
2018-05-03T07:16:09.190Z,41.00
2018-05-03T07:17:14.097Z,41.00
2018-05-03T07:18:19.021Z,40.80
2018-05-03T07:19:23.836Z,40.80
2018-05-03T07:20:28.717Z,40.70
2018-05-03T07:21:33.571Z,40.70
2018-05-03T07:22:38.372Z,40.80
2018-05-03T07:23:43.498Z,40.80
2018-05-03T07:24:48.254Z,40.90
2018-05-03T07:25:52.926Z,41.00
2018-05-03T07:26:57.940Z,41.00
2018-05-03T07:28:02.906Z,41.10
2018-05-03T07:29:07.925Z,41.00
2018-05-03T07:30:12.519Z,41.10
2018-05-03T07:31:17.318Z,41.10
2018-05-03T07:32:22.101Z,41.10
2018-05-03T07:33:26.903Z,41.00
2018-05-03T07:34:31.950Z,41.00
2018-05-03T07:35:36.589Z,40.90
2018-05-03T07:36:41.500Z,41.00
2018-05-03T07:37:46.138Z,41.10
2018-05-03T07:38:51.081Z,41.00
2018-05-03T07:39:55.871Z,40.80
2018-05-03T07:41:00.765Z,40.60
2018-05-03T07:42:05.659Z,40.30
2018-05-03T07:43:10.508Z,40.10
2018-05-03T07:44:15.355Z,39.90
2018-05-03T07:45:19.998Z,39.80
2018-05-03T07:46:24.904Z,39.70
2018-05-03T07:47:29.947Z,39.70
2018-05-03T07:48:34.784Z,39.90
2018-05-03T07:49:39.537Z,40.00
2018-05-03T07:50:44.257Z,40.00
2018-05-03T07:51:49.204Z,39.90
2018-05-03T07:52:53.828Z,40.00
2018-05-03T07:53:58.791Z,39.90
2018-05-03T07:55:03.662Z,39.70
2018-05-03T07:56:08.508Z,39.60
2018-05-03T07:57:13.311Z,39.60
2018-05-03T07:58:18.058Z,39.60
2018-05-03T07:59:22.889Z,39.60
2018-05-03T08:00:27.888Z,39.50
2018-05-03T08:01:32.865Z,39.60
2018-05-03T08:02:37.816Z,39.60
2018-05-03T08:03:42.642Z,39.80
2018-05-03T08:04:47.505Z,39.70
2018-05-03T08:05:52.395Z,39.70
2018-05-03T08:06:57.051Z,39.70
2018-05-03T08:08:01.871Z,39.60
2018-05-03T08:09:06.679Z,39.60
2018-05-03T08:10:11.384Z,39.50
2018-05-03T08:11:16.110Z,39.60
2018-05-03T08:12:20.922Z,39.60
2018-05-03T08:13:25.760Z,39.60
2018-05-03T08:14:30.740Z,39.50
2018-05-03T08:15:35.560Z,39.90
2018-05-03T08:16:40.316Z,39.10
2018-05-03T08:17:45.081Z,39.00
2018-05-03T08:18:49.947Z,39.00
2018-05-03T08:19:54.763Z,39.00
2018-05-03T08:20:59.573Z,38.80
2018-05-03T08:22:04.341Z,38.80
2018-05-03T08:23:09.077Z,38.70
2018-05-03T08:24:14.125Z,38.70
2018-05-03T08:25:19.029Z,38.80
2018-05-03T08:26:24.056Z,38.80
2018-05-03T08:27:29.038Z,38.90
2018-05-03T08:28:34.115Z,38.80
2018-05-03T08:29:38.899Z,38.70
2018-05-03T08:30:43.827Z,38.50
2018-05-03T08:31:48.830Z,38.40
2018-05-03T08:32:53.671Z,38.30
2018-05-03T08:33:58.748Z,38.20
2018-05-03T08:35:03.751Z,38.20
2018-05-03T08:36:08.688Z,38.10
2018-05-03T08:37:13.597Z,38.10
2018-05-03T08:38:18.434Z,38.10
2018-05-03T08:39:23.139Z,38.00
2018-05-03T08:40:28.125Z,38.00
2018-05-03T08:41:32.905Z,38.10
2018-05-03T08:42:37.639Z,38.20
2018-05-03T08:43:42.281Z,38.20
2018-05-03T08:44:47.117Z,38.10
2018-05-03T08:45:51.805Z,38.10
2018-05-03T08:46:56.556Z,38.20
2018-05-03T08:48:01.452Z,38.30
2018-05-03T08:49:06.260Z,38.40
2018-05-03T08:50:11.310Z,38.40
2018-05-03T08:51:16.113Z,38.40
2018-05-03T08:52:20.960Z,38.40
2018-05-03T08:53:25.798Z,38.30
2018-05-03T08:54:30.521Z,38.10
2018-05-03T08:55:35.501Z,38.00
2018-05-03T08:56:40.153Z,38.10
2018-05-03T08:57:44.922Z,38.20
2018-05-03T08:58:49.665Z,38.20
2018-05-03T08:59:54.346Z,38.30
2018-05-03T09:00:59.142Z,38.30
2018-05-03T09:02:04.047Z,38.30
2018-05-03T09:03:09.009Z,38.40
2018-05-03T09:04:13.743Z,38.40
2018-05-03T09:05:19.775Z,38.40
2018-05-03T09:06:24.764Z,38.50
2018-05-03T09:07:29.662Z,38.50
2018-05-03T09:08:34.582Z,38.50
2018-05-03T09:09:39.582Z,38.50
2018-05-03T09:10:44.365Z,38.50
2018-05-03T09:11:49.469Z,38.50
2018-05-03T09:12:54.274Z,38.40
2018-05-03T09:13:59.175Z,38.30
2018-05-03T09:15:03.993Z,38.10
2018-05-03T09:16:08.834Z,38.00
2018-05-03T09:17:13.806Z,38.00
2018-05-03T09:18:18.769Z,37.90
2018-05-03T09:19:23.402Z,37.90
2018-05-03T09:20:28.028Z,38.00
2018-05-03T09:21:32.806Z,38.00
2018-05-03T09:22:37.758Z,37.90
2018-05-03T09:23:42.741Z,37.70
2018-05-03T09:24:47.542Z,37.60
2018-05-03T09:25:52.499Z,37.60
2018-05-03T09:26:57.182Z,37.60
2018-05-03T09:28:02.040Z,37.50
2018-05-03T09:29:06.987Z,37.40
2018-05-03T09:30:11.798Z,37.50
2018-05-03T09:31:16.757Z,37.50
2018-05-03T09:32:21.537Z,37.40
2018-05-03T09:33:26.270Z,37.40
2018-05-03T09:34:31.270Z,37.20
2018-05-03T09:35:35.923Z,37.00
2018-05-03T09:36:40.740Z,36.80
2018-05-03T09:37:45.533Z,36.70
2018-05-03T09:38:50.341Z,36.70
2018-05-03T09:39:55.353Z,36.70
2018-05-03T09:41:00.129Z,36.70
2018-05-03T09:42:04.845Z,36.60
2018-05-03T09:43:09.687Z,36.50
2018-05-03T09:44:14.481Z,36.60
2018-05-03T09:45:19.319Z,36.50
2018-05-03T09:46:24.164Z,36.30
2018-05-03T09:47:28.957Z,36.20
2018-05-03T09:48:33.948Z,36.10
2018-05-03T09:49:38.597Z,36.10
2018-05-03T09:50:43.414Z,35.90
2018-05-03T09:51:48.230Z,35.80
2018-05-03T09:52:53.178Z,36.40
2018-05-03T09:53:58.060Z,35.80
2018-05-03T09:55:02.778Z,35.90
2018-05-03T09:56:07.861Z,36.00
2018-05-03T09:57:12.720Z,36.10
2018-05-03T09:58:17.468Z,36.10
2018-05-03T09:59:22.363Z,36.20
2018-05-03T10:00:27.642Z,36.20
2018-05-03T10:01:32.516Z,36.20
2018-05-03T10:02:37.529Z,36.20
2018-05-03T10:03:42.341Z,36.20
2018-05-03T10:04:47.115Z,36.00
2018-05-03T10:05:52.188Z,35.80
2018-05-03T10:06:57.222Z,35.60
2018-05-03T10:08:02.100Z,35.40
2018-05-03T10:09:06.987Z,35.40
2018-05-03T10:10:12.012Z,35.60
2018-05-03T10:11:16.860Z,35.70
2018-05-03T10:12:21.704Z,35.60
2018-05-03T10:13:26.612Z,35.70
2018-05-03T10:14:31.670Z,35.70
2018-05-03T10:15:36.296Z,35.50
2018-05-03T10:16:41.165Z,35.40
2018-05-03T10:17:45.826Z,35.30
2018-05-03T10:19:02.654Z,35.40
2018-05-03T10:20:07.414Z,35.40
2018-05-03T10:21:12.417Z,35.40
2018-05-03T10:22:17.409Z,35.50
2018-05-03T10:23:22.424Z,35.50
2018-05-03T10:24:27.356Z,35.60
2018-05-03T10:25:32.247Z,35.50
2018-05-03T10:26:36.987Z,35.70
2018-05-03T10:27:41.834Z,35.80
2018-05-03T10:28:46.699Z,35.90
2018-05-03T10:29:51.604Z,35.90
2018-05-03T10:30:56.670Z,36.00
2018-05-03T10:32:01.498Z,36.00
2018-05-03T10:33:06.184Z,35.80
2018-05-03T10:34:10.931Z,35.70
2018-05-03T10:35:15.731Z,35.60
2018-05-03T10:36:20.561Z,35.50
2018-05-03T10:37:25.638Z,35.60
2018-05-03T10:38:30.545Z,35.70
2018-05-03T10:39:35.410Z,35.60
2018-05-03T10:40:40.466Z,35.50
2018-05-03T10:41:45.428Z,35.50
2018-05-03T10:42:50.607Z,35.50
2018-05-03T10:43:55.515Z,35.40
2018-05-03T10:45:00.657Z,35.30
2018-05-03T10:46:05.614Z,35.30
2018-05-03T10:47:10.473Z,35.40
2018-05-03T10:48:15.377Z,35.30
2018-05-03T10:49:20.285Z,35.40
2018-05-03T10:50:25.160Z,35.30
2018-05-03T10:51:30.094Z,35.40
2018-05-03T10:52:34.979Z,35.30
2018-05-03T10:53:39.875Z,35.30
2018-05-03T10:54:44.946Z,35.40
2018-05-03T10:55:49.794Z,35.50
2018-05-03T10:56:54.773Z,35.60
2018-05-03T10:57:59.759Z,35.60
2018-05-03T10:59:04.706Z,35.60
2018-05-03T11:00:09.524Z,35.70
2018-05-03T11:01:14.235Z,35.80
2018-05-03T11:02:20.422Z,35.90
2018-05-03T11:03:25.422Z,36.00
2018-05-03T11:04:30.089Z,36.10
2018-05-03T11:05:35.294Z,36.20
2018-05-03T11:06:40.169Z,36.30
2018-05-03T11:07:44.905Z,36.30
2018-05-03T11:08:50.027Z,36.40
2018-05-03T11:09:55.476Z,36.50
2018-05-03T11:11:00.599Z,36.40
2018-05-03T11:12:05.469Z,36.60
2018-05-03T11:13:10.386Z,36.70
2018-05-03T11:14:15.383Z,36.70
2018-05-03T11:15:20.281Z,36.70
2018-05-03T11:16:25.262Z,36.80
2018-05-03T11:17:30.387Z,36.80
2018-05-03T11:18:35.061Z,36.90
2018-05-03T11:19:40.112Z,36.80
2018-05-03T11:20:45.165Z,36.90
2018-05-03T11:21:50.008Z,36.80
2018-05-03T11:22:54.949Z,36.90
2018-05-03T11:23:59.920Z,37.00
2018-05-03T11:25:05.023Z,37.10
2018-05-03T11:26:09.739Z,37.10
2018-05-03T11:27:14.395Z,37.10
2018-05-03T11:28:19.238Z,37.20
2018-05-03T11:29:23.963Z,37.90
2018-05-03T11:30:28.943Z,37.20
2018-05-03T11:31:33.832Z,37.20
2018-05-03T11:32:38.687Z,37.30
2018-05-03T11:33:43.404Z,37.40
2018-05-03T11:34:48.122Z,37.40
2018-05-03T11:35:54.406Z,37.50
2018-05-03T11:36:59.242Z,37.50
2018-05-03T11:38:04.068Z,37.60
2018-05-03T11:39:09.057Z,37.60
2018-05-03T11:40:13.887Z,37.60
2018-05-03T11:41:18.603Z,37.60
2018-05-03T11:42:23.596Z,37.70
2018-05-03T11:43:28.540Z,37.70
2018-05-03T11:44:33.196Z,37.90
2018-05-03T11:45:37.974Z,37.90
2018-05-03T11:46:42.996Z,38.00
2018-05-03T11:47:47.733Z,38.00
2018-05-03T11:48:52.784Z,38.10
2018-05-03T11:49:57.355Z,38.20
2018-05-03T11:51:02.285Z,38.10
2018-05-03T11:52:06.983Z,38.20
2018-05-03T11:53:11.987Z,38.20
2018-05-03T11:54:16.751Z,38.30
2018-05-03T11:55:21.618Z,38.30
2018-05-03T11:56:26.282Z,38.30
2018-05-03T11:57:31.315Z,38.30
2018-05-03T11:58:36.094Z,38.30
2018-05-03T11:59:41.194Z,38.20
2018-05-03T12:00:46.221Z,38.30
2018-05-03T12:01:51.279Z,38.30
2018-05-03T12:02:56.123Z,38.30
2018-05-03T12:04:00.975Z,38.40
2018-05-03T12:05:05.865Z,38.50
2018-05-03T12:06:10.870Z,38.50
2018-05-03T12:07:15.780Z,38.60
2018-05-03T12:08:20.637Z,38.60
2018-05-03T12:09:25.488Z,38.60
2018-05-03T12:10:30.310Z,38.70
2018-05-03T12:11:35.057Z,38.70
2018-05-03T12:12:40.016Z,38.70
2018-05-03T12:13:44.793Z,38.70
2018-05-03T12:14:49.732Z,38.80
2018-05-03T12:15:54.551Z,38.80
2018-05-03T12:16:59.733Z,38.90
2018-05-03T12:18:04.604Z,38.90
2018-05-03T12:19:09.435Z,38.90
2018-05-03T12:20:14.251Z,38.90
2018-05-03T12:21:18.995Z,38.90
2018-05-03T12:22:23.764Z,38.80
2018-05-03T12:23:28.772Z,38.90
2018-05-03T12:24:33.620Z,38.90
2018-05-03T12:25:38.483Z,39.00
2018-05-03T12:26:43.232Z,39.10
2018-05-03T12:27:48.157Z,39.10
2018-05-03T12:28:53.471Z,39.10
2018-05-03T12:29:58.248Z,39.20
2018-05-03T12:31:03.162Z,39.20
2018-05-03T12:32:07.782Z,39.30
2018-05-03T12:33:12.661Z,39.30
2018-05-03T12:34:17.676Z,39.40
2018-05-03T12:35:22.447Z,39.40
2018-05-03T12:36:27.391Z,39.40
2018-05-03T12:37:32.221Z,39.40
2018-05-03T12:38:37.026Z,39.50
2018-05-03T12:39:41.822Z,39.50
2018-05-03T12:40:46.514Z,39.60
2018-05-03T12:41:51.482Z,39.50
2018-05-03T12:42:56.171Z,39.50
2018-05-03T12:44:01.063Z,39.50
2018-05-03T12:45:06.112Z,39.50
2018-05-03T12:46:10.825Z,39.50
2018-05-03T12:47:15.705Z,39.60
2018-05-03T12:48:20.531Z,39.60
2018-05-03T12:49:25.794Z,39.70
2018-05-03T12:50:30.885Z,39.70
2018-05-03T12:51:36.079Z,39.80
2018-05-03T12:52:40.847Z,39.80
2018-05-03T12:53:45.519Z,39.90
2018-05-03T12:54:50.419Z,39.90
2018-05-03T12:55:56.336Z,39.90
2018-05-03T12:57:01.257Z,39.90
2018-05-03T12:58:06.145Z,39.90
2018-05-03T12:59:11.150Z,40.00
2018-05-03T13:00:16.106Z,40.00
2018-05-03T13:01:21.046Z,39.90
2018-05-03T13:02:25.849Z,39.90
2018-05-03T13:03:31.544Z,40.00
2018-05-03T13:04:36.687Z,40.00
2018-05-03T13:05:41.649Z,40.00
2018-05-03T13:06:46.684Z,40.10
2018-05-03T13:07:51.755Z,40.10
2018-05-03T13:08:56.656Z,40.20
2018-05-03T13:10:01.708Z,40.10
2018-05-03T13:11:06.719Z,40.10
2018-05-03T13:12:12.303Z,40.00
2018-05-03T13:13:17.362Z,40.00
2018-05-03T13:14:22.267Z,40.00
2018-05-03T13:15:27.282Z,40.00
2018-05-03T13:16:32.279Z,40.60
2018-05-03T13:17:37.353Z,40.00
2018-05-03T13:18:42.485Z,40.10
2018-05-03T13:19:47.446Z,40.10
2018-05-03T13:20:52.518Z,40.10
2018-05-03T13:21:57.366Z,40.00
2018-05-03T13:23:02.421Z,40.80
2018-05-03T13:24:07.462Z,40.30
2018-05-03T13:25:12.292Z,40.40
2018-05-03T13:26:16.909Z,40.40
2018-05-03T13:27:21.659Z,40.50
2018-05-03T13:28:27.501Z,40.50
2018-05-03T13:29:32.471Z,40.50
2018-05-03T13:30:37.282Z,40.60
2018-05-03T13:31:42.094Z,40.60
2018-05-03T13:32:47.086Z,40.70
2018-05-03T13:33:52.058Z,40.70
2018-05-03T13:34:56.986Z,40.70
2018-05-03T13:36:01.833Z,40.80
2018-05-03T13:37:06.688Z,40.80
2018-05-03T13:38:11.620Z,40.80
2018-05-03T13:39:16.290Z,40.80
2018-05-03T13:40:20.990Z,40.90
2018-05-03T13:41:25.907Z,40.80
2018-05-03T13:42:30.737Z,40.90
2018-05-03T13:43:35.695Z,40.90
2018-05-03T13:44:40.422Z,40.90
2018-05-03T13:45:45.361Z,40.90
2018-05-03T13:46:50.820Z,40.90
2018-05-03T13:47:55.729Z,41.00
2018-05-03T13:49:00.426Z,41.00
2018-05-03T13:50:05.257Z,41.00
2018-05-03T13:51:10.176Z,41.60
2018-05-03T13:52:15.082Z,41.00
2018-05-03T13:53:19.885Z,41.10
2018-05-03T13:54:24.810Z,41.00
2018-05-03T13:55:30.034Z,41.00